sensor_id;sensor_type;location;lat;lon;timestamp;P1;durP1;ratioP1;P2;durP2;ratioP2
12271;SDS011;6198;51.446;6.698;2023-08-08T00:01:33;3.57;;;2.93;;
12271;SDS011;6198;51.446;6.698;2023-08-08T00:04:00;4.43;;;3.40;;
12271;SDS011;6198;51.446;6.698;2023-08-08T00:06:26;5.30;;;3.20;;
12271;SDS011;6198;51.446;6.698;2023-08-08T00:08:52;5.00;;;3.30;;
12271;SDS011;6198;51.446;6.698;2023-08-08T00:11:18;4.60;;;3.17;;
12271;SDS011;6198;51.446;6.698;2023-08-08T00:13:45;3.03;;;2.70;;
12271;SDS011;6198;51.446;6.698;2023-08-08T00:16:11;4.27;;;3.10;;
12271;SDS011;6198;51.446;6.698;2023-08-08T00:18:37;4.17;;;3.20;;
12271;SDS011;6198;51.446;6.698;2023-08-08T00:21:03;5.80;;;3.00;;
12271;SDS011;6198;51.446;6.698;2023-08-08T00:23:29;3.63;;;3.03;;
12271;SDS011;6198;51.446;6.698;2023-08-08T00:25:54;6.00;;;3.43;;
12271;SDS011;6198;51.446;6.698;2023-08-08T00:28:20;5.90;;;2.73;;
12271;SDS011;6198;51.446;6.698;2023-08-08T00:30:46;5.43;;;3.07;;
12271;SDS011;6198;51.446;6.698;2023-08-08T00:33:12;3.63;;;3.17;;
12271;SDS011;6198;51.446;6.698;2023-08-08T00:35:38;3.60;;;2.83;;
12271;SDS011;6198;51.446;6.698;2023-08-08T00:38:04;4.17;;;3.23;;
12271;SDS011;6198;51.446;6.698;2023-08-08T00:40:30;5.00;;;3.20;;
12271;SDS011;6198;51.446;6.698;2023-08-08T00:42:56;5.60;;;3.23;;
12271;SDS011;6198;51.446;6.698;2023-08-08T00:45:22;3.93;;;3.17;;
12271;SDS011;6198;51.446;6.698;2023-08-08T00:47:48;4.17;;;3.30;;
12271;SDS011;6198;51.446;6.698;2023-08-08T00:50:15;6.03;;;3.33;;
12271;SDS011;6198;51.446;6.698;2023-08-08T00:52:43;3.67;;;3.17;;
12271;SDS011;6198;51.446;6.698;2023-08-08T00:55:09;6.57;;;3.80;;
12271;SDS011;6198;51.446;6.698;2023-08-08T00:57:35;4.63;;;3.17;;
12271;SDS011;6198;51.446;6.698;2023-08-08T01:00:04;6.23;;;3.10;;
12271;SDS011;6198;51.446;6.698;2023-08-08T01:02:30;5.43;;;3.50;;
12271;SDS011;6198;51.446;6.698;2023-08-08T01:04:56;5.60;;;3.80;;
12271;SDS011;6198;51.446;6.698;2023-08-08T01:10:08;5.93;;;3.23;;
12271;SDS011;6198;51.446;6.698;2023-08-08T01:12:42;4.20;;;3.50;;
12271;SDS011;6198;51.446;6.698;2023-08-08T01:15:09;6.70;;;3.60;;
12271;SDS011;6198;51.446;6.698;2023-08-08T01:17:36;4.43;;;3.37;;
12271;SDS011;6198;51.446;6.698;2023-08-08T01:20:03;4.70;;;3.47;;
12271;SDS011;6198;51.446;6.698;2023-08-08T01:22:32;3.97;;;3.43;;
12271;SDS011;6198;51.446;6.698;2023-08-08T01:25:01;5.80;;;3.57;;
12271;SDS011;6198;51.446;6.698;2023-08-08T01:27:27;4.13;;;3.57;;
12271;SDS011;6198;51.446;6.698;2023-08-08T01:29:54;7.47;;;3.80;;
12271;SDS011;6198;51.446;6.698;2023-08-08T01:32:20;7.30;;;3.83;;
12271;SDS011;6198;51.446;6.698;2023-08-08T01:34:46;11.63;;;4.00;;
12271;SDS011;6198;51.446;6.698;2023-08-08T01:37:19;4.77;;;3.47;;
12271;SDS011;6198;51.446;6.698;2023-08-08T01:39:48;6.30;;;3.80;;
12271;SDS011;6198;51.446;6.698;2023-08-08T01:42:14;5.70;;;3.80;;
12271;SDS011;6198;51.446;6.698;2023-08-08T01:44:41;5.70;;;3.87;;
12271;SDS011;6198;51.446;6.698;2023-08-08T01:47:07;8.00;;;3.87;;
12271;SDS011;6198;51.446;6.698;2023-08-08T01:49:34;6.20;;;3.37;;
12271;SDS011;6198;51.446;6.698;2023-08-08T01:51:59;8.37;;;3.60;;
12271;SDS011;6198;51.446;6.698;2023-08-08T01:54:25;7.83;;;3.70;;
12271;SDS011;6198;51.446;6.698;2023-08-08T01:56:51;4.87;;;3.90;;
12271;SDS011;6198;51.446;6.698;2023-08-08T01:59:17;6.77;;;3.53;;
12271;SDS011;6198;51.446;6.698;2023-08-08T02:01:43;7.63;;;3.90;;
12271;SDS011;6198;51.446;6.698;2023-08-08T02:04:09;5.87;;;4.00;;
12271;SDS011;6198;51.446;6.698;2023-08-08T02:06:35;8.23;;;3.60;;
12271;SDS011;6198;51.446;6.698;2023-08-08T02:09:01;5.67;;;4.00;;
12271;SDS011;6198;51.446;6.698;2023-08-08T02:11:27;6.30;;;3.50;;
12271;SDS011;6198;51.446;6.698;2023-08-08T02:13:53;6.10;;;3.73;;
12271;SDS011;6198;51.446;6.698;2023-08-08T02:16:19;7.60;;;3.83;;
12271;SDS011;6198;51.446;6.698;2023-08-08T02:18:45;5.57;;;3.77;;
12271;SDS011;6198;51.446;6.698;2023-08-08T02:21:11;3.93;;;3.53;;
12271;SDS011;6198;51.446;6.698;2023-08-08T02:23:37;7.77;;;4.33;;
12271;SDS011;6198;51.446;6.698;2023-08-08T02:26:03;6.13;;;3.70;;
12271;SDS011;6198;51.446;6.698;2023-08-08T02:28:29;5.97;;;3.70;;
12271;SDS011;6198;51.446;6.698;2023-08-08T02:30:55;10.57;;;3.93;;
12271;SDS011;6198;51.446;6.698;2023-08-08T02:33:21;6.63;;;3.93;;
12271;SDS011;6198;51.446;6.698;2023-08-08T02:35:47;5.97;;;3.67;;
12271;SDS011;6198;51.446;6.698;2023-08-08T02:38:13;9.47;;;4.03;;
12271;SDS011;6198;51.446;6.698;2023-08-08T02:40:39;5.90;;;3.80;;
12271;SDS011;6198;51.446;6.698;2023-08-08T02:43:05;6.50;;;3.80;;
12271;SDS011;6198;51.446;6.698;2023-08-08T02:45:31;6.17;;;4.00;;
12271;SDS011;6198;51.446;6.698;2023-08-08T02:47:56;6.87;;;3.93;;
12271;SDS011;6198;51.446;6.698;2023-08-08T02:50:22;8.43;;;3.80;;
12271;SDS011;6198;51.446;6.698;2023-08-08T02:52:49;7.10;;;4.30;;
12271;SDS011;6198;51.446;6.698;2023-08-08T02:55:15;4.10;;;3.57;;
12271;SDS011;6198;51.446;6.698;2023-08-08T02:57:41;7.50;;;4.37;;
12271;SDS011;6198;51.446;6.698;2023-08-08T03:00:07;7.90;;;4.30;;
12271;SDS011;6198;51.446;6.698;2023-08-08T03:02:34;7.83;;;4.50;;
12271;SDS011;6198;51.446;6.698;2023-08-08T03:05:00;7.80;;;4.20;;
12271;SDS011;6198;51.446;6.698;2023-08-08T03:07:26;5.93;;;3.97;;
12271;SDS011;6198;51.446;6.698;2023-08-08T03:09:52;12.73;;;5.43;;
12271;SDS011;6198;51.446;6.698;2023-08-08T03:12:18;11.97;;;4.37;;
12271;SDS011;6198;51.446;6.698;2023-08-08T03:14:44;13.17;;;4.90;;
12271;SDS011;6198;51.446;6.698;2023-08-08T03:17:10;8.73;;;4.93;;
12271;SDS011;6198;51.446;6.698;2023-08-08T03:19:36;5.27;;;4.73;;
12271;SDS011;6198;51.446;6.698;2023-08-08T03:22:02;10.90;;;4.60;;
12271;SDS011;6198;51.446;6.698;2023-08-08T03:24:28;8.40;;;4.57;;
12271;SDS011;6198;51.446;6.698;2023-08-08T03:26:54;10.60;;;5.37;;
12271;SDS011;6198;51.446;6.698;2023-08-08T03:29:20;8.27;;;5.57;;
12271;SDS011;6198;51.446;6.698;2023-08-08T03:31:46;9.23;;;5.27;;
12271;SDS011;6198;51.446;6.698;2023-08-08T03:34:12;8.83;;;5.20;;
12271;SDS011;6198;51.446;6.698;2023-08-08T03:36:38;9.80;;;5.77;;
12271;SDS011;6198;51.446;6.698;2023-08-08T03:39:04;8.00;;;5.00;;
12271;SDS011;6198;51.446;6.698;2023-08-08T03:41:32;9.07;;;5.10;;
12271;SDS011;6198;51.446;6.698;2023-08-08T03:43:58;8.87;;;5.03;;
12271;SDS011;6198;51.446;6.698;2023-08-08T03:46:24;8.87;;;5.80;;
12271;SDS011;6198;51.446;6.698;2023-08-08T03:48:50;9.80;;;5.40;;
12271;SDS011;6198;51.446;6.698;2023-08-08T03:51:16;11.30;;;5.63;;
12271;SDS011;6198;51.446;6.698;2023-08-08T03:53:42;11.47;;;5.57;;
12271;SDS011;6198;51.446;6.698;2023-08-08T03:56:08;11.57;;;5.20;;
12271;SDS011;6198;51.446;6.698;2023-08-08T03:58:34;11.37;;;5.47;;
12271;SDS011;6198;51.446;6.698;2023-08-08T04:01:00;9.80;;;5.60;;
12271;SDS011;6198;51.446;6.698;2023-08-08T04:03:26;10.67;;;6.37;;
12271;SDS011;6198;51.446;6.698;2023-08-08T04:05:52;10.17;;;5.53;;
12271;SDS011;6198;51.446;6.698;2023-08-08T04:08:18;13.33;;;6.57;;
12271;SDS011;6198;51.446;6.698;2023-08-08T04:10:46;17.43;;;6.23;;
12271;SDS011;6198;51.446;6.698;2023-08-08T04:13:12;12.93;;;6.23;;
12271;SDS011;6198;51.446;6.698;2023-08-08T04:15:38;8.87;;;5.63;;
12271;SDS011;6198;51.446;6.698;2023-08-08T04:18:04;11.83;;;6.07;;
12271;SDS011;6198;51.446;6.698;2023-08-08T04:20:32;12.43;;;5.97;;
12271;SDS011;6198;51.446;6.698;2023-08-08T04:22:58;17.60;;;6.30;;
12271;SDS011;6198;51.446;6.698;2023-08-08T04:25:24;11.83;;;6.10;;
12271;SDS011;6198;51.446;6.698;2023-08-08T04:27:50;17.47;;;6.07;;
12271;SDS011;6198;51.446;6.698;2023-08-08T04:30:16;15.30;;;6.37;;
12271;SDS011;6198;51.446;6.698;2023-08-08T04:32:42;13.03;;;6.27;;
12271;SDS011;6198;51.446;6.698;2023-08-08T04:35:08;10.17;;;5.90;;
12271;SDS011;6198;51.446;6.698;2023-08-08T04:37:34;19.00;;;6.77;;
12271;SDS011;6198;51.446;6.698;2023-08-08T04:40:00;12.40;;;6.97;;
12271;SDS011;6198;51.446;6.698;2023-08-08T04:42:26;9.17;;;6.30;;
12271;SDS011;6198;51.446;6.698;2023-08-08T04:44:52;18.53;;;6.83;;
12271;SDS011;6198;51.446;6.698;2023-08-08T04:47:18;13.37;;;7.03;;
12271;SDS011;6198;51.446;6.698;2023-08-08T04:49:43;19.77;;;7.33;;
12271;SDS011;6198;51.446;6.698;2023-08-08T04:52:09;14.00;;;6.40;;
12271;SDS011;6198;51.446;6.698;2023-08-08T04:54:35;12.50;;;6.53;;
12271;SDS011;6198;51.446;6.698;2023-08-08T04:57:01;19.07;;;7.37;;
12271;SDS011;6198;51.446;6.698;2023-08-08T04:59:27;13.37;;;7.13;;
12271;SDS011;6198;51.446;6.698;2023-08-08T05:01:53;14.57;;;6.63;;
12271;SDS011;6198;51.446;6.698;2023-08-08T05:04:19;16.30;;;7.60;;
12271;SDS011;6198;51.446;6.698;2023-08-08T05:06:46;14.80;;;7.60;;
12271;SDS011;6198;51.446;6.698;2023-08-08T05:09:12;13.80;;;6.67;;
12271;SDS011;6198;51.446;6.698;2023-08-08T05:11:38;10.17;;;6.90;;
12271;SDS011;6198;51.446;6.698;2023-08-08T05:14:04;15.50;;;7.10;;
12271;SDS011;6198;51.446;6.698;2023-08-08T05:16:30;9.97;;;7.17;;
12271;SDS011;6198;51.446;6.698;2023-08-08T05:18:56;11.63;;;7.63;;
12271;SDS011;6198;51.446;6.698;2023-08-08T05:21:22;16.63;;;7.40;;
12271;SDS011;6198;51.446;6.698;2023-08-08T05:23:48;14.90;;;7.80;;
12271;SDS011;6198;51.446;6.698;2023-08-08T05:26:14;16.50;;;7.63;;
12271;SDS011;6198;51.446;6.698;2023-08-08T05:28:40;20.67;;;8.47;;
12271;SDS011;6198;51.446;6.698;2023-08-08T05:31:07;15.00;;;8.00;;
12271;SDS011;6198;51.446;6.698;2023-08-08T05:33:33;12.83;;;8.53;;
12271;SDS011;6198;51.446;6.698;2023-08-08T05:35:59;14.37;;;7.87;;
12271;SDS011;6198;51.446;6.698;2023-08-08T05:38:25;17.00;;;8.50;;
12271;SDS011;6198;51.446;6.698;2023-08-08T05:40:51;18.27;;;9.17;;
12271;SDS011;6198;51.446;6.698;2023-08-08T05:43:17;15.90;;;9.30;;
12271;SDS011;6198;51.446;6.698;2023-08-08T05:45:43;14.77;;;9.27;;
12271;SDS011;6198;51.446;6.698;2023-08-08T05:48:09;17.97;;;9.63;;
12271;SDS011;6198;51.446;6.698;2023-08-08T05:50:37;18.27;;;10.93;;
12271;SDS011;6198;51.446;6.698;2023-08-08T05:53:03;20.80;;;10.87;;
12271;SDS011;6198;51.446;6.698;2023-08-08T05:55:29;19.87;;;10.20;;
12271;SDS011;6198;51.446;6.698;2023-08-08T05:57:55;17.23;;;11.23;;
12271;SDS011;6198;51.446;6.698;2023-08-08T06:00:21;22.47;;;11.27;;
12271;SDS011;6198;51.446;6.698;2023-08-08T06:02:47;19.13;;;11.13;;
12271;SDS011;6198;51.446;6.698;2023-08-08T06:05:13;20.53;;;12.17;;
12271;SDS011;6198;51.446;6.698;2023-08-08T06:07:39;21.17;;;12.33;;
12271;SDS011;6198;51.446;6.698;2023-08-08T06:10:06;21.70;;;12.73;;
12271;SDS011;6198;51.446;6.698;2023-08-08T06:12:33;22.43;;;12.77;;
12271;SDS011;6198;51.446;6.698;2023-08-08T06:14:59;22.20;;;13.23;;
12271;SDS011;6198;51.446;6.698;2023-08-08T06:17:25;24.50;;;13.10;;
12271;SDS011;6198;51.446;6.698;2023-08-08T06:19:51;22.20;;;13.00;;
12271;SDS011;6198;51.446;6.698;2023-08-08T06:22:18;17.53;;;13.07;;
12271;SDS011;6198;51.446;6.698;2023-08-08T06:24:44;25.10;;;14.00;;
12271;SDS011;6198;51.446;6.698;2023-08-08T06:27:10;24.03;;;14.30;;
12271;SDS011;6198;51.446;6.698;2023-08-08T06:29:36;21.00;;;14.33;;
12271;SDS011;6198;51.446;6.698;2023-08-08T06:32:02;22.07;;;13.70;;
12271;SDS011;6198;51.446;6.698;2023-08-08T06:34:28;22.13;;;13.13;;
12271;SDS011;6198;51.446;6.698;2023-08-08T06:36:54;21.40;;;13.70;;
12271;SDS011;6198;51.446;6.698;2023-08-08T06:39:20;21.17;;;14.13;;
12271;SDS011;6198;51.446;6.698;2023-08-08T06:41:47;21.43;;;13.97;;
12271;SDS011;6198;51.446;6.698;2023-08-08T06:44:13;24.47;;;13.53;;
12271;SDS011;6198;51.446;6.698;2023-08-08T06:46:39;27.10;;;12.70;;
12271;SDS011;6198;51.446;6.698;2023-08-08T06:49:04;20.57;;;13.23;;
12271;SDS011;6198;51.446;6.698;2023-08-08T06:51:32;18.77;;;12.90;;
12271;SDS011;6198;51.446;6.698;2023-08-08T06:53:58;20.73;;;12.43;;
12271;SDS011;6198;51.446;6.698;2023-08-08T06:56:24;18.83;;;12.43;;
12271;SDS011;6198;51.446;6.698;2023-08-08T06:58:53;15.20;;;12.13;;
12271;SDS011;6198;51.446;6.698;2023-08-08T07:01:19;27.90;;;11.53;;
12271;SDS011;6198;51.446;6.698;2023-08-08T07:03:45;19.00;;;10.77;;
12271;SDS011;6198;51.446;6.698;2023-08-08T07:06:12;19.77;;;10.60;;
12271;SDS011;6198;51.446;6.698;2023-08-08T07:08:38;17.50;;;9.97;;
12271;SDS011;6198;51.446;6.698;2023-08-08T07:11:07;17.13;;;10.43;;
12271;SDS011;6198;51.446;6.698;2023-08-08T07:13:33;15.53;;;9.53;;
12271;SDS011;6198;51.446;6.698;2023-08-08T07:15:59;17.13;;;9.30;;
12271;SDS011;6198;51.446;6.698;2023-08-08T07:18:25;12.60;;;8.20;;
12271;SDS011;6198;51.446;6.698;2023-08-08T07:20:51;19.57;;;8.00;;
12271;SDS011;6198;51.446;6.698;2023-08-08T07:23:17;15.43;;;6.97;;
12271;SDS011;6198;51.446;6.698;2023-08-08T07:25:44;9.07;;;6.87;;
12271;SDS011;6198;51.446;6.698;2023-08-08T07:28:12;12.83;;;7.30;;
12271;SDS011;6198;51.446;6.698;2023-08-08T07:30:39;14.90;;;7.03;;
12271;SDS011;6198;51.446;6.698;2023-08-08T07:33:05;15.93;;;6.33;;
12271;SDS011;6198;51.446;6.698;2023-08-08T07:35:33;14.37;;;6.53;;
12271;SDS011;6198;51.446;6.698;2023-08-08T07:37:59;14.40;;;6.00;;
12271;SDS011;6198;51.446;6.698;2023-08-08T07:40:25;13.47;;;5.90;;
12271;SDS011;6198;51.446;6.698;2023-08-08T07:42:51;13.73;;;5.77;;
12271;SDS011;6198;51.446;6.698;2023-08-08T07:45:17;10.33;;;5.30;;
12271;SDS011;6198;51.446;6.698;2023-08-08T07:47:43;11.30;;;5.00;;
12271;SDS011;6198;51.446;6.698;2023-08-08T07:50:09;11.33;;;5.10;;
12271;SDS011;6198;51.446;6.698;2023-08-08T07:52:35;16.63;;;5.07;;
12271;SDS011;6198;51.446;6.698;2023-08-08T07:55:02;11.20;;;5.20;;
12271;SDS011;6198;51.446;6.698;2023-08-08T07:57:28;13.17;;;4.63;;
12271;SDS011;6198;51.446;6.698;2023-08-08T08:00:01;9.50;;;4.60;;
12271;SDS011;6198;51.446;6.698;2023-08-08T08:02:33;18.40;;;4.80;;
12271;SDS011;6198;51.446;6.698;2023-08-08T08:04:59;7.97;;;4.77;;
12271;SDS011;6198;51.446;6.698;2023-08-08T08:07:25;9.13;;;4.60;;
12271;SDS011;6198;51.446;6.698;2023-08-08T08:09:52;10.13;;;4.00;;
12271;SDS011;6198;51.446;6.698;2023-08-08T08:12:18;14.90;;;4.60;;
12271;SDS011;6198;51.446;6.698;2023-08-08T08:14:45;10.67;;;4.13;;
12271;SDS011;6198;51.446;6.698;2023-08-08T08:17:11;7.53;;;4.00;;
12271;SDS011;6198;51.446;6.698;2023-08-08T08:19:36;9.47;;;4.30;;
12271;SDS011;6198;51.446;6.698;2023-08-08T08:22:02;11.13;;;4.17;;
12271;SDS011;6198;51.446;6.698;2023-08-08T08:24:29;10.70;;;3.97;;
12271;SDS011;6198;51.446;6.698;2023-08-08T08:26:55;11.40;;;4.23;;
12271;SDS011;6198;51.446;6.698;2023-08-08T08:29:21;12.87;;;4.13;;
12271;SDS011;6198;51.446;6.698;2023-08-08T08:31:47;8.73;;;3.97;;
12271;SDS011;6198;51.446;6.698;2023-08-08T08:34:13;8.43;;;3.80;;
12271;SDS011;6198;51.446;6.698;2023-08-08T08:36:39;10.13;;;3.67;;
12271;SDS011;6198;51.446;6.698;2023-08-08T08:39:05;16.73;;;4.10;;
12271;SDS011;6198;51.446;6.698;2023-08-08T08:41:31;7.07;;;3.57;;
12271;SDS011;6198;51.446;6.698;2023-08-08T08:43:57;8.80;;;3.77;;
12271;SDS011;6198;51.446;6.698;2023-08-08T08:46:24;12.23;;;3.80;;
12271;SDS011;6198;51.446;6.698;2023-08-08T08:48:51;12.13;;;4.47;;
12271;SDS011;6198;51.446;6.698;2023-08-08T08:51:21;9.43;;;3.83;;
12271;SDS011;6198;51.446;6.698;2023-08-08T08:53:47;9.33;;;3.73;;
12271;SDS011;6198;51.446;6.698;2023-08-08T08:56:13;9.57;;;3.43;;
12271;SDS011;6198;51.446;6.698;2023-08-08T08:58:41;8.10;;;3.60;;
12271;SDS011;6198;51.446;6.698;2023-08-08T09:01:07;10.10;;;4.17;;
12271;SDS011;6198;51.446;6.698;2023-08-08T09:03:33;9.77;;;3.90;;
12271;SDS011;6198;51.446;6.698;2023-08-08T09:06:00;7.93;;;3.57;;
12271;SDS011;6198;51.446;6.698;2023-08-08T09:08:26;8.07;;;3.50;;
12271;SDS011;6198;51.446;6.698;2023-08-08T09:10:52;8.37;;;4.27;;
12271;SDS011;6198;51.446;6.698;2023-08-08T09:13:18;9.03;;;4.00;;
12271;SDS011;6198;51.446;6.698;2023-08-08T09:15:46;10.63;;;3.83;;
12271;SDS011;6198;51.446;6.698;2023-08-08T09:18:13;7.67;;;3.80;;
12271;SDS011;6198;51.446;6.698;2023-08-08T09:20:39;7.00;;;3.30;;
12271;SDS011;6198;51.446;6.698;2023-08-08T09:23:05;8.37;;;3.47;;
12271;SDS011;6198;51.446;6.698;2023-08-08T09:25:31;11.67;;;3.73;;
12271;SDS011;6198;51.446;6.698;2023-08-08T09:27:57;8.80;;;3.50;;
12271;SDS011;6198;51.446;6.698;2023-08-08T09:30:23;6.90;;;3.63;;
12271;SDS011;6198;51.446;6.698;2023-08-08T09:32:49;7.27;;;3.57;;
12271;SDS011;6198;51.446;6.698;2023-08-08T09:35:15;8.63;;;3.73;;
12271;SDS011;6198;51.446;6.698;2023-08-08T09:37:41;10.63;;;4.20;;
12271;SDS011;6198;51.446;6.698;2023-08-08T09:40:07;10.40;;;3.50;;
12271;SDS011;6198;51.446;6.698;2023-08-08T09:42:36;9.07;;;3.70;;
12271;SDS011;6198;51.446;6.698;2023-08-08T09:45:02;10.37;;;3.80;;
12271;SDS011;6198;51.446;6.698;2023-08-08T09:47:28;9.03;;;3.63;;
12271;SDS011;6198;51.446;6.698;2023-08-08T09:49:59;8.30;;;4.00;;
12271;SDS011;6198;51.446;6.698;2023-08-08T09:52:26;6.97;;;3.50;;
12271;SDS011;6198;51.446;6.698;2023-08-08T09:54:53;9.30;;;3.53;;
12271;SDS011;6198;51.446;6.698;2023-08-08T09:57:19;8.13;;;3.40;;
12271;SDS011;6198;51.446;6.698;2023-08-08T09:59:45;6.80;;;3.40;;
12271;SDS011;6198;51.446;6.698;2023-08-08T10:02:13;7.77;;;3.50;;
12271;SDS011;6198;51.446;6.698;2023-08-08T10:04:40;9.37;;;3.37;;
12271;SDS011;6198;51.446;6.698;2023-08-08T10:07:06;7.40;;;3.23;;
12271;SDS011;6198;51.446;6.698;2023-08-08T10:09:33;9.00;;;3.57;;
12271;SDS011;6198;51.446;6.698;2023-08-08T10:11:59;7.77;;;3.20;;
12271;SDS011;6198;51.446;6.698;2023-08-08T10:14:28;8.10;;;3.43;;
12271;SDS011;6198;51.446;6.698;2023-08-08T10:16:55;9.60;;;3.50;;
12271;SDS011;6198;51.446;6.698;2023-08-08T10:19:22;6.97;;;3.33;;
12271;SDS011;6198;51.446;6.698;2023-08-08T10:21:48;8.73;;;3.50;;
12271;SDS011;6198;51.446;6.698;2023-08-08T10:24:19;9.60;;;3.00;;
12271;SDS011;6198;51.446;6.698;2023-08-08T10:26:52;6.13;;;3.10;;
12271;SDS011;6198;51.446;6.698;2023-08-08T10:29:19;7.80;;;3.20;;
12271;SDS011;6198;51.446;6.698;2023-08-08T10:31:52;6.77;;;3.20;;
12271;SDS011;6198;51.446;6.698;2023-08-08T10:34:19;5.60;;;2.90;;
12271;SDS011;6198;51.446;6.698;2023-08-08T10:36:49;6.07;;;2.23;;
12271;SDS011;6198;51.446;6.698;2023-08-08T10:39:16;5.43;;;2.47;;
12271;SDS011;6198;51.446;6.698;2023-08-08T10:41:46;7.03;;;2.87;;
12271;SDS011;6198;51.446;6.698;2023-08-08T10:44:13;6.50;;;2.83;;
12271;SDS011;6198;51.446;6.698;2023-08-08T10:46:40;7.80;;;3.03;;
12271;SDS011;6198;51.446;6.698;2023-08-08T10:49:06;8.97;;;3.17;;
12271;SDS011;6198;51.446;6.698;2023-08-08T10:51:39;5.90;;;2.90;;
12271;SDS011;6198;51.446;6.698;2023-08-08T10:54:12;7.33;;;3.10;;
12271;SDS011;6198;51.446;6.698;2023-08-08T10:56:38;7.90;;;3.13;;
12271;SDS011;6198;51.446;6.698;2023-08-08T10:59:14;6.27;;;2.57;;
12271;SDS011;6198;51.446;6.698;2023-08-08T11:01:41;5.83;;;2.90;;
12271;SDS011;6198;51.446;6.698;2023-08-08T11:04:09;6.13;;;2.57;;
12271;SDS011;6198;51.446;6.698;2023-08-08T11:06:36;6.63;;;3.00;;
12271;SDS011;6198;51.446;6.698;2023-08-08T11:09:04;7.37;;;2.90;;
12271;SDS011;6198;51.446;6.698;2023-08-08T11:11:35;4.60;;;2.77;;
12271;SDS011;6198;51.446;6.698;2023-08-08T11:14:08;5.53;;;2.80;;
12271;SDS011;6198;51.446;6.698;2023-08-08T11:16:34;5.47;;;2.40;;
12271;SDS011;6198;51.446;6.698;2023-08-08T11:19:00;4.63;;;2.50;;
12271;SDS011;6198;51.446;6.698;2023-08-08T11:21:26;4.80;;;2.83;;
12271;SDS011;6198;51.446;6.698;2023-08-08T11:23:52;4.13;;;2.60;;
12271;SDS011;6198;51.446;6.698;2023-08-08T11:26:18;6.10;;;2.50;;
12271;SDS011;6198;51.446;6.698;2023-08-08T11:28:51;4.97;;;2.50;;
12271;SDS011;6198;51.446;6.698;2023-08-08T11:40:27;6.70;;;2.90;;
12271;SDS011;6198;51.446;6.698;2023-08-08T11:42:54;7.50;;;3.00;;
12271;SDS011;6198;51.446;6.698;2023-08-08T11:45:21;7.73;;;2.70;;
12271;SDS011;6198;51.446;6.698;2023-08-08T11:47:48;7.63;;;2.80;;
12271;SDS011;6198;51.446;6.698;2023-08-08T11:50:14;7.27;;;2.90;;
12271;SDS011;6198;51.446;6.698;2023-08-08T11:52:41;6.13;;;3.43;;
12271;SDS011;6198;51.446;6.698;2023-08-08T11:55:10;6.77;;;3.30;;
12271;SDS011;6198;51.446;6.698;2023-08-08T11:57:37;6.87;;;2.70;;
12271;SDS011;6198;51.446;6.698;2023-08-08T12:00:06;5.87;;;3.27;;
12271;SDS011;6198;51.446;6.698;2023-08-08T12:02:34;7.63;;;3.13;;
12271;SDS011;6198;51.446;6.698;2023-08-08T12:05:06;8.30;;;3.13;;
12271;SDS011;6198;51.446;6.698;2023-08-08T12:07:33;6.33;;;3.20;;
12271;SDS011;6198;51.446;6.698;2023-08-08T12:10:00;5.67;;;2.90;;
12271;SDS011;6198;51.446;6.698;2023-08-08T12:12:27;7.63;;;3.23;;
12271;SDS011;6198;51.446;6.698;2023-08-08T12:14:56;12.17;;;3.30;;
12271;SDS011;6198;51.446;6.698;2023-08-08T12:17:22;8.43;;;2.70;;
12271;SDS011;6198;51.446;6.698;2023-08-08T12:19:48;5.20;;;2.90;;
12271;SDS011;6198;51.446;6.698;2023-08-08T12:22:14;7.97;;;2.57;;
12271;SDS011;6198;51.446;6.698;2023-08-08T12:24:40;6.63;;;2.63;;
12271;SDS011;6198;51.446;6.698;2023-08-08T12:27:06;5.60;;;2.50;;
12271;SDS011;6198;51.446;6.698;2023-08-08T12:29:32;7.67;;;3.23;;
12271;SDS011;6198;51.446;6.698;2023-08-08T12:31:58;6.43;;;3.10;;
12271;SDS011;6198;51.446;6.698;2023-08-08T12:34:24;6.07;;;2.90;;
12271;SDS011;6198;51.446;6.698;2023-08-08T12:36:50;5.33;;;2.90;;
12271;SDS011;6198;51.446;6.698;2023-08-08T12:39:16;8.13;;;3.07;;
12271;SDS011;6198;51.446;6.698;2023-08-08T12:41:42;4.37;;;2.47;;
12271;SDS011;6198;51.446;6.698;2023-08-08T12:44:08;4.87;;;2.80;;
12271;SDS011;6198;51.446;6.698;2023-08-08T12:46:34;4.57;;;2.60;;
12271;SDS011;6198;51.446;6.698;2023-08-08T12:49:00;4.10;;;2.70;;
12271;SDS011;6198;51.446;6.698;2023-08-08T12:51:26;4.70;;;2.80;;
12271;SDS011;6198;51.446;6.698;2023-08-08T12:53:52;4.13;;;2.57;;
12271;SDS011;6198;51.446;6.698;2023-08-08T12:56:18;3.73;;;2.40;;
12271;SDS011;6198;51.446;6.698;2023-08-08T12:58:44;5.60;;;2.77;;
12271;SDS011;6198;51.446;6.698;2023-08-08T13:01:10;4.40;;;2.70;;
12271;SDS011;6198;51.446;6.698;2023-08-08T13:03:36;4.83;;;2.50;;
12271;SDS011;6198;51.446;6.698;2023-08-08T13:06:02;4.23;;;2.57;;
12271;SDS011;6198;51.446;6.698;2023-08-08T13:08:28;5.23;;;2.90;;
12271;SDS011;6198;51.446;6.698;2023-08-08T13:10:54;7.73;;;2.63;;
12271;SDS011;6198;51.446;6.698;2023-08-08T13:13:20;7.97;;;3.00;;
12271;SDS011;6198;51.446;6.698;2023-08-08T13:15:50;4.10;;;2.50;;
12271;SDS011;6198;51.446;6.698;2023-08-08T13:18:15;6.57;;;2.80;;
12271;SDS011;6198;51.446;6.698;2023-08-08T13:20:41;7.87;;;2.63;;
12271;SDS011;6198;51.446;6.698;2023-08-08T13:23:07;6.20;;;2.87;;
12271;SDS011;6198;51.446;6.698;2023-08-08T13:25:33;4.23;;;2.40;;
12271;SDS011;6198;51.446;6.698;2023-08-08T13:28:00;5.17;;;2.80;;
12271;SDS011;6198;51.446;6.698;2023-08-08T13:30:27;3.73;;;1.87;;
12271;SDS011;6198;51.446;6.698;2023-08-08T13:32:53;5.23;;;2.57;;
12271;SDS011;6198;51.446;6.698;2023-08-08T13:35:19;40.17;;;14.67;;
12271;SDS011;6198;51.446;6.698;2023-08-08T13:37:45;3.20;;;1.97;;
12271;SDS011;6198;51.446;6.698;2023-08-08T13:40:15;4.07;;;2.27;;
12271;SDS011;6198;51.446;6.698;2023-08-08T13:42:42;5.30;;;3.50;;
12271;SDS011;6198;51.446;6.698;2023-08-08T13:45:12;6.93;;;2.60;;
12271;SDS011;6198;51.446;6.698;2023-08-08T13:47:38;3.57;;;2.60;;
12271;SDS011;6198;51.446;6.698;2023-08-08T13:50:05;4.30;;;2.60;;
12271;SDS011;6198;51.446;6.698;2023-08-08T13:52:31;4.07;;;2.07;;
12271;SDS011;6198;51.446;6.698;2023-08-08T13:54:58;6.23;;;3.50;;
12271;SDS011;6198;51.446;6.698;2023-08-08T13:57:24;4.93;;;2.60;;
12271;SDS011;6198;51.446;6.698;2023-08-08T13:59:50;2.30;;;2.10;;
12271;SDS011;6198;51.446;6.698;2023-08-08T14:02:16;6.93;;;2.83;;
12271;SDS011;6198;51.446;6.698;2023-08-08T14:04:43;4.37;;;2.20;;
12271;SDS011;6198;51.446;6.698;2023-08-08T14:07:09;5.37;;;2.50;;
12271;SDS011;6198;51.446;6.698;2023-08-08T14:09:35;6.57;;;2.60;;
12271;SDS011;6198;51.446;6.698;2023-08-08T14:12:01;2.13;;;1.83;;
12271;SDS011;6198;51.446;6.698;2023-08-08T14:14:27;5.63;;;2.63;;
12271;SDS011;6198;51.446;6.698;2023-08-08T14:16:53;3.07;;;2.17;;
12271;SDS011;6198;51.446;6.698;2023-08-08T14:19:19;4.47;;;2.33;;
12271;SDS011;6198;51.446;6.698;2023-08-08T14:21:45;2.40;;;2.03;;
12271;SDS011;6198;51.446;6.698;2023-08-08T14:24:11;5.13;;;2.10;;
12271;SDS011;6198;51.446;6.698;2023-08-08T14:26:37;4.50;;;2.20;;
12271;SDS011;6198;51.446;6.698;2023-08-08T14:29:03;3.30;;;2.10;;
12271;SDS011;6198;51.446;6.698;2023-08-08T14:31:29;5.93;;;2.13;;
12271;SDS011;6198;51.446;6.698;2023-08-08T14:33:55;3.47;;;1.80;;
12271;SDS011;6198;51.446;6.698;2023-08-08T14:36:21;5.20;;;2.10;;
12271;SDS011;6198;51.446;6.698;2023-08-08T14:38:47;2.07;;;1.80;;
12271;SDS011;6198;51.446;6.698;2023-08-08T14:41:13;3.43;;;2.00;;
12271;SDS011;6198;51.446;6.698;2023-08-08T14:43:39;8.40;;;1.70;;
12271;SDS011;6198;51.446;6.698;2023-08-08T14:46:05;6.40;;;1.80;;
12271;SDS011;6198;51.446;6.698;2023-08-08T14:48:31;2.50;;;1.63;;
12271;SDS011;6198;51.446;6.698;2023-08-08T14:50:59;3.47;;;1.60;;
12271;SDS011;6198;51.446;6.698;2023-08-08T14:53:25;2.43;;;1.60;;
12271;SDS011;6198;51.446;6.698;2023-08-08T14:55:51;4.70;;;1.40;;
12271;SDS011;6198;51.446;6.698;2023-08-08T14:58:17;1.50;;;1.37;;
12271;SDS011;6198;51.446;6.698;2023-08-08T15:00:43;1.70;;;1.60;;
12271;SDS011;6198;51.446;6.698;2023-08-08T15:03:09;5.23;;;1.47;;